sensor_id;sensor_type;location;lat;lon;timestamp;pressure;altitude;pressure_sealevel;temperature;humidity
10366;BME280;5229;41.820;23.490;2023-03-03T00:01:09;89862.84;;;8.22;64.80
10366;BME280;5229;41.820;23.490;2023-03-03T00:03:36;89856.91;;;8.22;64.75
10366;BME280;5229;41.820;23.490;2023-03-03T00:06:04;89851.25;;;8.20;64.87
10366;BME280;5229;41.820;23.490;2023-03-03T00:08:31;89847.16;;;8.19;64.97
10366;BME280;5229;41.820;23.490;2023-03-03T00:10:58;89849.41;;;8.20;64.74
10366;BME280;5229;41.820;23.490;2023-03-03T00:13:27;89842.56;;;8.16;64.83
10366;BME280;5229;41.820;23.490;2023-03-03T00:16:10;89848.88;;;8.10;64.92
10366;BME280;5229;41.820;23.490;2023-03-03T00:18:40;89844.00;;;8.08;64.91
10366;BME280;5229;41.820;23.490;2023-03-03T00:21:25;89844.88;;;8.04;64.76
10366;BME280;5229;41.820;23.490;2023-03-03T00:23:54;89843.66;;;8.01;64.54
10366;BME280;5229;41.820;23.490;2023-03-03T00:26:22;89844.22;;;7.98;65.36
10366;BME280;5229;41.820;23.490;2023-03-03T00:28:52;89844.81;;;7.95;64.39
10366;BME280;5229;41.820;23.490;2023-03-03T00:31:27;89831.91;;;7.95;65.24
10366;BME280;5229;41.820;23.490;2023-03-03T00:33:56;89834.97;;;7.97;64.58
10366;BME280;5229;41.820;23.490;2023-03-03T00:36:30;89829.03;;;7.97;65.16
10366;BME280;5229;41.820;23.490;2023-03-03T00:39:21;89835.81;;;7.93;64.85
10366;BME280;5229;41.820;23.490;2023-03-03T00:41:50;89828.84;;;7.93;65.06
10366;BME280;5229;41.820;23.490;2023-03-03T00:44:41;89827.91;;;7.89;64.62
10366;BME280;5229;41.820;23.490;2023-03-03T00:47:28;89832.13;;;7.85;65.12
10366;BME280;5229;41.820;23.490;2023-03-03T00:53:10;89818.38;;;7.76;64.51
10366;BME280;5229;41.820;23.490;2023-03-03T00:55:37;89818.09;;;7.78;64.76
10366;BME280;5229;41.820;23.490;2023-03-03T00:58:05;89814.94;;;7.81;64.55
10366;BME280;5229;41.820;23.490;2023-03-03T01:00:32;89817.03;;;7.79;64.36
10366;BME280;5229;41.820;23.490;2023-03-03T01:03:03;89810.34;;;7.78;64.42
10366;BME280;5229;41.820;23.490;2023-03-03T01:05:30;89809.88;;;7.76;64.42
10366;BME280;5229;41.820;23.490;2023-03-03T01:07:57;89807.28;;;7.76;64.79
10366;BME280;5229;41.820;23.490;2023-03-03T01:10:24;89793.94;;;7.74;64.95
10366;BME280;5229;41.820;23.490;2023-03-03T01:12:52;89803.47;;;7.73;64.06
10366;BME280;5229;41.820;23.490;2023-03-03T01:15:19;89798.03;;;7.75;64.29
10366;BME280;5229;41.820;23.490;2023-03-03T01:17:46;89800.59;;;7.75;64.81
10366;BME280;5229;41.820;23.490;2023-03-03T01:20:15;89803.19;;;7.75;64.26
10366;BME280;5229;41.820;23.490;2023-03-03T01:22:42;89796.22;;;7.75;64.77
10366;BME280;5229;41.820;23.490;2023-03-03T01:25:09;89796.97;;;7.76;64.32
10366;BME280;5229;41.820;23.490;2023-03-03T01:27:36;89796.97;;;7.76;64.29
10366;BME280;5229;41.820;23.490;2023-03-03T01:30:04;89792.28;;;7.78;64.64
10366;BME280;5229;41.820;23.490;2023-03-03T01:32:31;89790.78;;;7.77;64.96
10366;BME280;5229;41.820;23.490;2023-03-03T01:34:59;89783.91;;;7.72;64.35
10366;BME280;5229;41.820;23.490;2023-03-03T01:37:27;89784.63;;;7.73;64.91
10366;BME280;5229;41.820;23.490;2023-03-03T01:39:54;89788.13;;;7.68;65.01
10366;BME280;5229;41.820;23.490;2023-03-03T01:42:21;89783.34;;;7.62;64.85
10366;BME280;5229;41.820;23.490;2023-03-03T01:44:48;89778.31;;;7.57;64.81
10366;BME280;5229;41.820;23.490;2023-03-03T01:47:35;89780.50;;;7.50;65.32
10366;BME280;5229;41.820;23.490;2023-03-03T01:50:04;89772.00;;;7.49;65.86
10366;BME280;5229;41.820;23.490;2023-03-03T01:52:38;89768.38;;;7.50;66.12
10366;BME280;5229;41.820;23.490;2023-03-03T01:55:11;89765.53;;;7.52;65.56
10366;BME280;5229;41.820;23.490;2023-03-03T01:57:40;89767.78;;;7.53;66.04
10366;BME280;5229;41.820;23.490;2023-03-03T02:00:10;89770.69;;;7.52;65.18
10366;BME280;5229;41.820;23.490;2023-03-03T02:02:39;89763.97;;;7.51;66.04
10366;BME280;5229;41.820;23.490;2023-03-03T02:05:07;89766.25;;;7.52;64.98
10366;BME280;5229;41.820;23.490;2023-03-03T02:07:34;89766.47;;;7.56;65.67
10366;BME280;5229;41.820;23.490;2023-03-03T02:10:06;89763.75;;;7.61;65.60
10366;BME280;5229;41.820;23.490;2023-03-03T02:12:37;89765.75;;;7.64;66.09
10366;BME280;5229;41.820;23.490;2023-03-03T02:15:15;89766.81;;;7.63;65.08
10366;BME280;5229;41.820;23.490;2023-03-03T02:17:42;89762.13;;;7.65;65.21
10366;BME280;5229;41.820;23.490;2023-03-03T02:20:13;89759.53;;;7.65;65.47
10366;BME280;5229;41.820;23.490;2023-03-03T02:22:47;89755.94;;;7.66;65.63
10366;BME280;5229;41.820;23.490;2023-03-03T02:25:21;89755.31;;;7.69;65.74
10366;BME280;5229;41.820;23.490;2023-03-03T02:27:52;89759.91;;;7.72;65.70
10366;BME280;5229;41.820;23.490;2023-03-03T02:30:24;89752.66;;;7.74;65.35
10366;BME280;5229;41.820;23.490;2023-03-03T02:32:50;89751.28;;;7.76;65.77
10366;BME280;5229;41.820;23.490;2023-03-03T02:35:29;89747.19;;;7.75;65.80
10366;BME280;5229;41.820;23.490;2023-03-03T02:38:01;89747.19;;;7.75;66.24
10366;BME280;5229;41.820;23.490;2023-03-03T02:40:35;89744.63;;;7.75;65.47
10366;BME280;5229;41.820;23.490;2023-03-03T02:43:05;89758.25;;;7.76;66.13
10366;BME280;5229;41.820;23.490;2023-03-03T02:45:32;89751.88;;;7.73;65.66
10366;BME280;5229;41.820;23.490;2023-03-03T02:47:59;89754.44;;;7.73;65.70
10366;BME280;5229;41.820;23.490;2023-03-03T02:50:26;89755.69;;;7.76;66.53
10366;BME280;5229;41.820;23.490;2023-03-03T02:52:52;89755.88;;;7.79;66.20
10366;BME280;5229;41.820;23.490;2023-03-03T02:55:19;89751.66;;;7.83;66.33
10366;BME280;5229;41.820;23.490;2023-03-03T02:58:18;89757.59;;;7.84;65.77
10366;BME280;5229;41.820;23.490;2023-03-03T03:00:45;89759.09;;;7.85;65.84
10366;BME280;5229;41.820;23.490;2023-03-03T03:03:13;89761.09;;;7.88;66.15
10366;BME280;5229;41.820;23.490;2023-03-03T03:05:40;89746.84;;;7.90;65.76
10366;BME280;5229;41.820;23.490;2023-03-03T03:08:07;89756.38;;;7.90;65.69
10366;BME280;5229;41.820;23.490;2023-03-03T03:10:34;89765.19;;;7.89;65.49
10366;BME280;5229;41.820;23.490;2023-03-03T03:13:01;89757.59;;;7.84;65.51
10366;BME280;5229;41.820;23.490;2023-03-03T03:15:29;89757.88;;;7.82;65.73
10366;BME280;5229;41.820;23.490;2023-03-03T03:17:56;89758.75;;;7.78;65.33
10366;BME280;5229;41.820;23.490;2023-03-03T03:20:23;89761.63;;;7.76;65.94
10366;BME280;5229;41.820;23.490;2023-03-03T03:22:49;89759.31;;;7.75;65.95
10366;BME280;5229;41.820;23.490;2023-03-03T03:25:16;89758.09;;;7.72;65.77
10366;BME280;5229;41.820;23.490;2023-03-03T03:27:43;89750.63;;;7.71;65.33
10366;BME280;5229;41.820;23.490;2023-03-03T03:30:10;89757.31;;;7.72;64.93
10366;BME280;5229;41.820;23.490;2023-03-03T03:32:39;89756.25;;;7.73;65.40
10366;BME280;5229;41.820;23.490;2023-03-03T03:35:06;89765.53;;;7.74;64.67
10366;BME280;5229;41.820;23.490;2023-03-03T03:37:33;89754.00;;;7.71;64.67
10366;BME280;5229;41.820;23.490;2023-03-03T03:40:00;89758.09;;;7.72;64.92
10366;BME280;5229;41.820;23.490;2023-03-03T03:42:27;89759.31;;;7.75;65.40
10366;BME280;5229;41.820;23.490;2023-03-03T03:44:53;89750.06;;;7.74;64.85
10366;BME280;5229;41.820;23.490;2023-03-03T03:47:20;89745.94;;;7.73;65.60
10366;BME280;5229;41.820;23.490;2023-03-03T03:49:48;89743.69;;;7.71;65.37
10366;BME280;5229;41.820;23.490;2023-03-03T03:52:15;89746.25;;;7.71;65.47
10366;BME280;5229;41.820;23.490;2023-03-03T03:54:42;89751.72;;;7.70;64.89
10366;BME280;5229;41.820;23.490;2023-03-03T03:57:08;89754.28;;;7.70;65.24
10366;BME280;5229;41.820;23.490;2023-03-03T03:59:35;89746.53;;;7.70;65.48
10366;BME280;5229;41.820;23.490;2023-03-03T04:02:03;89750.16;;;7.69;64.82
10366;BME280;5229;41.820;23.490;2023-03-03T04:04:30;89754.28;;;7.70;65.42
10366;BME280;5229;41.820;23.490;2023-03-03T04:06:58;89749.59;;;7.72;65.65
10366;BME280;5229;41.820;23.490;2023-03-03T04:09:25;89756.25;;;7.73;65.26
10366;BME280;5229;41.820;23.490;2023-03-03T04:11:52;89752.16;;;7.72;65.46
10366;BME280;5229;41.820;23.490;2023-03-03T04:14:19;89755.81;;;7.71;65.31
10366;BME280;5229;41.820;23.490;2023-03-03T04:16:46;89748.34;;;7.69;65.44
10366;BME280;5229;41.820;23.490;2023-03-03T04:19:13;89747.56;;;7.69;64.96
10366;BME280;5229;41.820;23.490;2023-03-03T04:21:39;89753.03;;;7.67;64.81
10366;BME280;5229;41.820;23.490;2023-03-03T04:24:08;89749.22;;;7.65;65.53
10366;BME280;5229;41.820;23.490;2023-03-03T04:26:35;89747.69;;;7.64;65.51
10366;BME280;5229;41.820;23.490;2023-03-03T04:29:02;89747.69;;;7.64;65.99
10366;BME280;5229;41.820;23.490;2023-03-03T04:31:28;89753.94;;;7.63;66.04
10366;BME280;5229;41.820;23.490;2023-03-03T04:33:55;89759.09;;;7.63;65.16
10366;BME280;5229;41.820;23.490;2023-03-03T04:36:22;89758.03;;;7.64;65.54
10366;BME280;5229;41.820;23.490;2023-03-03T04:38:49;89757.25;;;7.63;65.58
10366;BME280;5229;41.820;23.490;2023-03-03T04:41:17;89759.53;;;7.65;65.34
10366;BME280;5229;41.820;23.490;2023-03-03T04:43:44;89753.63;;;7.64;66.07
10366;BME280;5229;41.820;23.490;2023-03-03T04:46:11;89758.31;;;7.62;65.90
10366;BME280;5229;41.820;23.490;2023-03-03T04:48:38;89760.72;;;7.59;65.80
10366;BME280;5229;41.820;23.490;2023-03-03T04:51:05;89762.81;;;7.57;66.48
10366;BME280;5229;41.820;23.490;2023-03-03T04:53:31;89763.09;;;7.55;66.67
10366;BME280;5229;41.820;23.490;2023-03-03T04:55:58;89770.84;;;7.55;65.77
10366;BME280;5229;41.820;23.490;2023-03-03T04:58:26;89761.88;;;7.53;66.31
10366;BME280;5229;41.820;23.490;2023-03-03T05:00:55;89761.88;;;7.53;65.87
10366;BME280;5229;41.820;23.490;2023-03-03T05:03:22;89762.16;;;7.51;66.60
10366;BME280;5229;41.820;23.490;2023-03-03T05:05:49;89761.69;;;7.49;65.96
10366;BME280;5229;41.820;23.490;2023-03-03T05:08:17;89766.66;;;7.46;67.08
10366;BME280;5229;41.820;23.490;2023-03-03T05:10:44;89771.84;;;7.46;66.79
10366;BME280;5229;41.820;23.490;2023-03-03T05:13:11;89770.00;;;7.46;66.99
10366;BME280;5229;41.820;23.490;2023-03-03T05:15:41;89769.25;;;7.46;65.98
10366;BME280;5229;41.820;23.490;2023-03-03T05:18:07;89763.59;;;7.44;66.84
10366;BME280;5229;41.820;23.490;2023-03-03T05:20:35;89769.81;;;7.43;66.22
10366;BME280;5229;41.820;23.490;2023-03-03T05:23:02;89769.81;;;7.43;67.29
10366;BME280;5229;41.820;23.490;2023-03-03T05:25:29;89772.13;;;7.44;67.06
10366;BME280;5229;41.820;23.490;2023-03-03T05:27:56;89774.97;;;7.43;66.26
10366;BME280;5229;41.820;23.490;2023-03-03T05:30:23;89773.75;;;7.40;66.48
10366;BME280;5229;41.820;23.490;2023-03-03T05:32:52;89779.66;;;7.41;66.50
10366;BME280;5229;41.820;23.490;2023-03-03T05:35:18;89780.72;;;7.40;66.11
10366;BME280;5229;41.820;23.490;2023-03-03T05:37:45;89778.13;;;7.40;67.29
10366;BME280;5229;41.820;23.490;2023-03-03T05:40:14;89781.78;;;7.39;66.98
10366;BME280;5229;41.820;23.490;2023-03-03T05:42:40;89787.41;;;7.41;66.87
10366;BME280;5229;41.820;23.490;2023-03-03T05:45:08;89775.28;;;7.41;66.58
10366;BME280;5229;41.820;23.490;2023-03-03T05:47:35;89782.72;;;7.43;66.56
10366;BME280;5229;41.820;23.490;2023-03-03T05:50:04;89784.25;;;7.44;66.48
10366;BME280;5229;41.820;23.490;2023-03-03T05:52:31;89791.53;;;7.42;66.60
10366;BME280;5229;41.820;23.490;2023-03-03T05:54:58;89785.88;;;7.40;67.05
10366;BME280;5229;41.820;23.490;2023-03-03T05:57:25;89785.59;;;7.41;67.09
10366;BME280;5229;41.820;23.490;2023-03-03T05:59:51;89786.66;;;7.40;67.63
10366;BME280;5229;41.820;23.490;2023-03-03T06:02:19;89789.22;;;7.40;67.30
10366;BME280;5229;41.820;23.490;2023-03-03T06:04:45;89797.25;;;7.39;67.58
10366;BME280;5229;41.820;23.490;2023-03-03T06:07:14;89793.63;;;7.40;67.37
10366;BME280;5229;41.820;23.490;2023-03-03T06:09:40;89798.19;;;7.43;66.71
10366;BME280;5229;41.820;23.490;2023-03-03T06:12:07;89794.56;;;7.44;67.25
10366;BME280;5229;41.820;23.490;2023-03-03T06:14:34;89799.72;;;7.44;66.81
10366;BME280;5229;41.820;23.490;2023-03-03T06:17:01;89798.84;;;7.48;66.64
10366;BME280;5229;41.820;23.490;2023-03-03T06:19:27;89802.94;;;7.49;67.49
10366;BME280;5229;41.820;23.490;2023-03-03T06:21:54;89807.53;;;7.52;67.13
10366;BME280;5229;41.820;23.490;2023-03-03T06:24:23;89804.97;;;7.52;67.58
10366;BME280;5229;41.820;23.490;2023-03-03T06:26:54;89805.16;;;7.56;67.46
10366;BME280;5229;41.820;23.490;2023-03-03T06:29:21;89805.16;;;7.56;67.00
10366;BME280;5229;41.820;23.490;2023-03-03T06:31:48;89807.75;;;7.56;66.98
10366;BME280;5229;41.820;23.490;2023-03-03T06:34:15;89802.38;;;7.52;67.62
10366;BME280;5229;41.820;23.490;2023-03-03T06:36:42;89809.25;;;7.57;67.39
10366;BME280;5229;41.820;23.490;2023-03-03T06:39:09;89807.91;;;7.59;67.12
10366;BME280;5229;41.820;23.490;2023-03-03T06:41:37;89811.72;;;7.62;67.69
10366;BME280;5229;41.820;23.490;2023-03-03T06:44:04;89815.28;;;7.66;67.30
10366;BME280;5229;41.820;23.490;2023-03-03T06:46:31;89813.34;;;7.71;67.47
10366;BME280;5229;41.820;23.490;2023-03-03T06:48:58;89812.94;;;7.78;66.86
10366;BME280;5229;41.820;23.490;2023-03-03T06:51:29;89809.66;;;7.86;67.36
10366;BME280;5229;41.820;23.490;2023-03-03T06:54:01;89825.78;;;7.91;66.59
10366;BME280;5229;41.820;23.490;2023-03-03T06:56:37;89815.66;;;7.95;66.48
10366;BME280;5229;41.820;23.490;2023-03-03T06:59:10;89817.66;;;7.98;67.34
10366;BME280;5229;41.820;23.490;2023-03-03T07:01:38;89820.53;;;7.96;66.94
10366;BME280;5229;41.820;23.490;2023-03-03T07:04:13;89817.19;;;7.96;67.03
10366;BME280;5229;41.820;23.490;2023-03-03T07:06:41;89815.09;;;7.98;66.56
10366;BME280;5229;41.820;23.490;2023-03-03T07:09:16;89817.84;;;8.01;66.99
10366;BME280;5229;41.820;23.490;2023-03-03T07:11:47;89815.44;;;8.05;66.82
10366;BME280;5229;41.820;23.490;2023-03-03T07:14:16;89807.38;;;8.06;66.80
10366;BME280;5229;41.820;23.490;2023-03-03T07:16:44;89808.06;;;8.12;66.29
10366;BME280;5229;41.820;23.490;2023-03-03T07:19:17;89817.31;;;8.13;66.50
10366;BME280;5229;41.820;23.490;2023-03-03T07:21:45;89813.38;;;8.15;66.83
10366;BME280;5229;41.820;23.490;2023-03-03T07:24:24;89823.41;;;8.17;65.93
10366;BME280;5229;41.820;23.490;2023-03-03T07:26:58;89815.38;;;8.18;66.85
10366;BME280;5229;41.820;23.490;2023-03-03T07:29:27;89817.13;;;8.23;66.40
10366;BME280;5229;41.820;23.490;2023-03-03T07:31:56;89820.16;;;8.25;66.02
10366;BME280;5229;41.820;23.490;2023-03-03T07:34:27;89811.53;;;8.29;66.73
10366;BME280;5229;41.820;23.490;2023-03-03T07:36:57;89819.75;;;8.31;66.58
10366;BME280;5229;41.820;23.490;2023-03-03T07:39:30;89814.28;;;8.33;66.69
10366;BME280;5229;41.820;23.490;2023-03-03T07:42:17;89813.25;;;8.34;66.38
10366;BME280;5229;41.820;23.490;2023-03-03T07:44:46;89812.75;;;8.32;66.06
10366;BME280;5229;41.820;23.490;2023-03-03T07:47:19;89813.25;;;8.34;66.13
10366;BME280;5229;41.820;23.490;2023-03-03T07:49:47;89806.44;;;8.38;65.98
10366;BME280;5229;41.820;23.490;2023-03-03T07:52:23;89801.13;;;8.43;66.17
10366;BME280;5229;41.820;23.490;2023-03-03T07:54:51;89798.53;;;8.43;65.52
10366;BME280;5229;41.820;23.490;2023-03-03T07:57:24;89802.06;;;8.47;66.17
10366;BME280;5229;41.820;23.490;2023-03-03T07:59:52;89801.75;;;8.48;65.90
10366;BME280;5229;41.820;23.490;2023-03-03T08:02:36;89798.88;;;8.50;65.69
10366;BME280;5229;41.820;23.490;2023-03-03T08:05:23;89803.94;;;8.55;65.79
10366;BME280;5229;41.820;23.490;2023-03-03T08:07:53;89798.84;;;8.63;66.01
10366;BME280;5229;41.820;23.490;2023-03-03T08:10:31;89803.56;;;8.70;65.52
10366;BME280;5229;41.820;23.490;2023-03-03T08:13:11;89793.56;;;8.77;65.83
10366;BME280;5229;41.820;23.490;2023-03-03T08:15:39;89790.53;;;8.83;65.35
10366;BME280;5229;41.820;23.490;2023-03-03T08:18:17;89785.56;;;8.87;65.20
10366;BME280;5229;41.820;23.490;2023-03-03T08:20:46;89790.00;;;8.95;65.03
10366;BME280;5229;41.820;23.490;2023-03-03T08:23:14;89795.03;;;9.00;64.94
10366;BME280;5229;41.820;23.490;2023-03-03T08:25:42;89788.66;;;9.06;65.10
10366;BME280;5229;41.820;23.490;2023-03-03T08:28:11;89785.34;;;9.14;64.78
10366;BME280;5229;41.820;23.490;2023-03-03T08:30:38;89789.63;;;9.19;64.83
10366;BME280;5229;41.820;23.490;2023-03-03T08:33:05;89790.84;;;9.21;64.98
10366;BME280;5229;41.820;23.490;2023-03-03T08:35:32;89791.78;;;9.25;64.33
10366;BME280;5229;41.820;23.490;2023-03-03T08:37:59;89793.34;;;9.35;65.20
10366;BME280;5229;41.820;23.490;2023-03-03T08:40:26;89782.38;;;9.46;64.04
10366;BME280;5229;41.820;23.490;2023-03-03T08:42:53;89787.28;;;9.56;64.62
10366;BME280;5229;41.820;23.490;2023-03-03T08:45:21;89790.06;;;9.68;64.18
10366;BME280;5229;41.820;23.490;2023-03-03T08:47:48;89791.88;;;9.76;64.04
10366;BME280;5229;41.820;23.490;2023-03-03T08:50:14;89788.53;;;9.84;63.73
10366;BME280;5229;41.820;23.490;2023-03-03T08:52:41;89788.84;;;9.91;63.45
10366;BME280;5229;41.820;23.490;2023-03-03T08:55:09;89783.53;;;9.96;63.70
10366;BME280;5229;41.820;23.490;2023-03-03T08:57:36;89786.13;;;9.96;63.76
10366;BME280;5229;41.820;23.490;2023-03-03T09:00:05;89785.03;;;9.97;63.18
10366;BME280;5229;41.820;23.490;2023-03-03T09:02:33;89784.88;;;10.02;63.75
10366;BME280;5229;41.820;23.490;2023-03-03T09:05:00;89778.69;;;10.12;62.97
10366;BME280;5229;41.820;23.490;2023-03-03T09:07:27;89784.91;;;10.19;62.98
10366;BME280;5229;41.820;23.490;2023-03-03T09:09:54;89781.53;;;10.27;62.63
10366;BME280;5229;41.820;23.490;2023-03-03T09:12:25;89781.69;;;10.39;62.96
10366;BME280;5229;41.820;23.490;2023-03-03T09:14:55;89780.13;;;10.47;62.62
10366;BME280;5229;41.820;23.490;2023-03-03T09:17:24;89781.06;;;10.51;61.81
10366;BME280;5229;41.820;23.490;2023-03-03T09:19:55;89780.59;;;10.57;62.35
10366;BME280;5229;41.820;23.490;2023-03-03T09:22:25;89781.78;;;10.68;61.84
10366;BME280;5229;41.820;23.490;2023-03-03T09:24:53;89785.88;;;10.78;61.95
10366;BME280;5229;41.820;23.490;2023-03-03T09:27:26;89774.72;;;10.86;61.87
10366;BME280;5229;41.820;23.490;2023-03-03T09:29:54;89777.75;;;10.96;62.31
10366;BME280;5229;41.820;23.490;2023-03-03T09:32:29;89779.69;;;11.08;60.81
10366;BME280;5229;41.820;23.490;2023-03-03T09:34:58;89781.03;;;11.14;60.71
10366;BME280;5229;41.820;23.490;2023-03-03T09:37:28;89776.28;;;11.16;61.17
10366;BME280;5229;41.820;23.490;2023-03-03T09:39:59;89778.41;;;11.22;60.52
10366;BME280;5229;41.820;23.490;2023-03-03T09:45:38;89775.88;;;11.43;60.64
10366;BME280;5229;41.820;23.490;2023-03-03T09:48:22;89777.03;;;11.62;60.33
10366;BME280;5229;41.820;23.490;2023-03-03T09:51:05;89777.97;;;11.78;60.05
10366;BME280;5229;41.820;23.490;2023-03-03T09:53:43;89777.81;;;11.83;60.40
10366;BME280;5229;41.820;23.490;2023-03-03T09:56:22;89781.72;;;11.89;59.38
10366;BME280;5229;41.820;23.490;2023-03-03T09:59:02;89772.72;;;11.87;59.70
10366;BME280;5229;41.820;23.490;2023-03-03T10:01:45;89779.00;;;11.86;58.79
10366;BME280;5229;41.820;23.490;2023-03-03T10:04:41;89772.59;;;11.83;59.61
10366;BME280;5229;41.820;23.490;2023-03-03T10:07:22;89774.38;;;11.92;58.48
10366;BME280;5229;41.820;23.490;2023-03-03T10:10:18;89783.06;;;11.96;58.32
10366;BME280;5229;41.820;23.490;2023-03-03T10:13:00;89776.28;;;12.03;57.87
10366;BME280;5229;41.820;23.490;2023-03-03T10:15:36;89775.31;;;12.08;58.39
10366;BME280;5229;41.820;23.490;2023-03-03T10:18:14;89774.38;;;12.12;57.70
10366;BME280;5229;41.820;23.490;2023-03-03T10:20:49;89771.16;;;12.15;57.75
10366;BME280;5229;41.820;23.490;2023-03-03T10:23:36;89770.25;;;12.11;57.70
10366;BME280;5229;41.820;23.490;2023-03-03T10:26:16;89771.22;;;12.07;57.06
10366;BME280;5229;41.820;23.490;2023-03-03T10:29:04;89772.66;;;11.96;58.29
10366;BME280;5229;41.820;23.490;2023-03-03T10:31:52;89774.25;;;11.88;58.35
10366;BME280;5229;41.820;23.490;2023-03-03T10:37:23;89770.38;;;11.73;58.57
10366;BME280;5229;41.820;23.490;2023-03-03T10:40:02;89768.25;;;11.67;57.53
10366;BME280;5229;41.820;23.490;2023-03-03T10:42:48;89764.63;;;11.59;57.67
10366;BME280;5229;41.820;23.490;2023-03-03T10:45:40;89766.50;;;11.50;58.71
10366;BME280;5229;41.820;23.490;2023-03-03T10:48:25;89763.91;;;11.50;58.42
10366;BME280;5229;41.820;23.490;2023-03-03T10:51:02;89758.28;;;11.48;57.74
10366;BME280;5229;41.820;23.490;2023-03-03T10:53:35;89756.75;;;11.47;58.70
10366;BME280;5229;41.820;23.490;2023-03-03T10:56:21;89757.69;;;11.43;58.34
10366;BME280;5229;41.820;23.490;2023-03-03T10:59:02;89763.50;;;11.40;57.85
10366;BME280;5229;41.820;23.490;2023-03-03T11:01:43;89751.97;;;11.29;57.93
10366;BME280;5229;41.820;23.490;2023-03-03T11:07:15;89747.13;;;11.19;58.18
10366;BME280;5229;41.820;23.490;2023-03-03T11:09:55;89744.84;;;11.17;58.27
10366;BME280;5229;41.820;23.490;2023-03-03T11:12:40;89738.56;;;11.18;58.07
10366;BME280;5229;41.820;23.490;2023-03-03T11:15:25;89736.16;;;11.13;57.81
10366;BME280;5229;41.820;23.490;2023-03-03T11:18:06;89733.41;;;11.10;58.31
10366;BME280;5229;41.820;23.490;2023-03-03T11:20:41;89737.41;;;11.07;59.46
10366;BME280;5229;41.820;23.490;2023-03-03T11:23:34;89733.47;;;11.01;59.01
10366;BME280;5229;41.820;23.490;2023-03-03T11:26:08;89730.72;;;11.06;58.59
10366;BME280;5229;41.820;23.490;2023-03-03T11:28:54;89730.09;;;11.09;59.29
10366;BME280;5229;41.820;23.490;2023-03-03T11:31:27;89726.69;;;11.17;58.53
10366;BME280;5229;41.820;23.490;2023-03-03T11:34:04;89727.56;;;11.21;57.85
10366;BME280;5229;41.820;23.490;2023-03-03T11:36:38;89728.47;;;11.25;57.99
10366;BME280;5229;41.820;23.490;2023-03-03T11:39:09;89722.81;;;11.32;57.40
10366;BME280;5229;41.820;23.490;2023-03-03T11:41:38;89724.69;;;11.43;57.34
10366;BME280;5229;41.820;23.490;2023-03-03T11:44:17;89720.66;;;11.54;58.09
10366;BME280;5229;41.820;23.490;2023-03-03T11:46:49;89720.47;;;11.68;57.64
10366;BME280;5229;41.820;23.490;2023-03-03T11:49:21;89717.03;;;11.76;57.32
10366;BME280;5229;41.820;23.490;2023-03-03T11:51:58;89718.22;;;11.78;57.19
10366;BME280;5229;41.820;23.490;2023-03-03T11:54:29;89715.00;;;11.81;56.28
10366;BME280;5229;41.820;23.490;2023-03-03T11:57:09;89711.94;;;11.79;56.89
10366;BME280;5229;41.820;23.490;2023-03-03T11:59:57;89708.59;;;11.79;56.66
10366;BME280;5229;41.820;23.490;2023-03-03T12:02:38;89709.81;;;11.81;56.66
10366;BME280;5229;41.820;23.490;2023-03-03T12:05:12;89708.09;;;11.85;55.80
10366;BME280;5229;41.820;23.490;2023-03-03T12:07:49;89706.38;;;11.89;56.15
10366;BME280;5229;41.820;23.490;2023-03-03T12:10:23;89702.19;;;11.97;56.02
10366;BME280;5229;41.820;23.490;2023-03-03T12:13:00;89707.50;;;12.01;56.52
10366;BME280;5229;41.820;23.490;2023-03-03T12:15:36;89708.53;;;12.08;56.53
10366;BME280;5229;41.820;23.490;2023-03-03T12:18:23;89703.56;;;12.15;56.04
10366;BME280;5229;41.820;23.490;2023-03-03T12:21:05;89709.00;;;12.22;55.86
10366;BME280;5229;41.820;23.490;2023-03-03T12:23:48;89701.44;;;12.17;55.78
10366;BME280;5229;41.820;23.490;2023-03-03T12:26:24;89702.56;;;12.08;55.92
10366;BME280;5229;41.820;23.490;2023-03-03T12:29:00;89698.03;;;12.05;56.66
10366;BME280;5229;41.820;23.490;2023-03-03T12:31:40;89695.06;;;12.06;56.19
10366;BME280;5229;41.820;23.490;2023-03-03T12:34:17;89702.25;;;12.09;56.54
10366;BME280;5229;41.820;23.490;2023-03-03T12:39:44;89700.19;;;12.15;55.83
10366;BME280;5229;41.820;23.490;2023-03-03T12:42:20;89694.81;;;12.20;55.50
10366;BME280;5229;41.820;23.490;2023-03-03T12:44:56;89699.06;;;12.24;56.04
10366;BME280;5229;41.820;23.490;2023-03-03T12:47:32;89697.66;;;12.27;56.27
10366;BME280;5229;41.820;23.490;2023-03-03T12:50:18;89700.25;;;12.27;55.32
10366;BME280;5229;41.820;23.490;2023-03-03T12:52:53;89698.22;;;12.32;55.32
10366;BME280;5229;41.820;23.490;2023-03-03T12:55:31;89693.88;;;12.36;56.02
10366;BME280;5229;41.820;23.490;2023-03-03T12:58:10;89693.34;;;12.43;55.63
10366;BME280;5229;41.820;23.490;2023-03-03T13:00:52;89692.09;;;12.49;54.89
10366;BME280;5229;41.820;23.490;2023-03-03T13:03:32;89694.91;;;12.56;54.80
10366;BME280;5229;41.820;23.490;2023-03-03T13:06:06;89701.13;;;12.63;54.74
10366;BME280;5229;41.820;23.490;2023-03-03T13:08:50;89688.84;;;12.64;53.90
10366;BME280;5229;41.820;23.490;2023-03-03T13:11:41;89692.78;;;12.70;54.32
10366;BME280;5229;41.820;23.490;2023-03-03T13:14:18;89685.66;;;12.79;53.79
10366;BME280;5229;41.820;23.490;2023-03-03T13:17:00;89688.91;;;12.76;54.09
10366;BME280;5229;41.820;23.490;2023-03-03T13:19:33;89686.94;;;12.73;53.97
10366;BME280;5229;41.820;23.490;2023-03-03T13:22:07;89691.38;;;12.72;53.48
10366;BME280;5229;41.820;23.490;2023-03-03T13:24:38;89697.34;;;12.73;53.67
10366;BME280;5229;41.820;23.490;2023-03-03T13:27:12;89690.19;;;12.70;54.26
10366;BME280;5229;41.820;23.490;2023-03-03T13:29:41;89689.31;;;12.66;54.09
10366;BME280;5229;41.820;23.490;2023-03-03T13:32:13;89679.88;;;12.61;54.03
10366;BME280;5229;41.820;23.490;2023-03-03T13:34:50;89681.59;;;12.57;54.35
10366;BME280;5229;41.820;23.490;2023-03-03T13:37:20;89685.47;;;12.51;54.59
10366;BME280;5229;41.820;23.490;2023-03-03T13:39:55;89683.81;;;12.47;54.88
10366;BME280;5229;41.820;23.490;2023-03-03T13:42:30;89685.38;;;12.48;54.56
10366;BME280;5229;41.820;23.490;2023-03-03T13:45:00;89683.72;;;12.43;54.47
10366;BME280;5229;41.820;23.490;2023-03-03T13:47:34;89682.72;;;12.36;54.64